sensor_id;sensor_type;location;lat;lon;timestamp;temperature;humidity
32522;DHT22;18963;51.504;5.316;2023-03-23T00:01:00;11.50;99.90
32522;DHT22;18963;51.504;5.316;2023-03-23T00:03:27;11.50;99.90
32522;DHT22;18963;51.504;5.316;2023-03-23T00:05:54;11.50;99.90
32522;DHT22;18963;51.504;5.316;2023-03-23T00:08:25;11.50;99.90
32522;DHT22;18963;51.504;5.316;2023-03-23T00:10:52;11.50;99.90
32522;DHT22;18963;51.504;5.316;2023-03-23T00:13:23;11.40;99.90
32522;DHT22;18963;51.504;5.316;2023-03-23T00:15:49;11.50;99.90
32522;DHT22;18963;51.504;5.316;2023-03-23T00:18:17;11.50;99.90
32522;DHT22;18963;51.504;5.316;2023-03-23T00:20:48;11.50;99.90
32522;DHT22;18963;51.504;5.316;2023-03-23T00:23:16;11.50;99.90
32522;DHT22;18963;51.504;5.316;2023-03-23T00:25:45;11.50;99.90
32522;DHT22;18963;51.504;5.316;2023-03-23T00:28:11;11.50;99.90
32522;DHT22;18963;51.504;5.316;2023-03-23T00:30:39;11.50;99.90
32522;DHT22;18963;51.504;5.316;2023-03-23T00:33:04;11.50;99.90
32522;DHT22;18963;51.504;5.316;2023-03-23T00:35:30;11.60;99.90
32522;DHT22;18963;51.504;5.316;2023-03-23T00:37:56;11.60;99.90
32522;DHT22;18963;51.504;5.316;2023-03-23T00:40:24;11.60;99.90
32522;DHT22;18963;51.504;5.316;2023-03-23T00:42:49;11.60;99.90
32522;DHT22;18963;51.504;5.316;2023-03-23T00:45:15;11.60;99.90
32522;DHT22;18963;51.504;5.316;2023-03-23T00:47:41;11.60;99.90
32522;DHT22;18963;51.504;5.316;2023-03-23T00:50:12;11.50;99.90
32522;DHT22;18963;51.504;5.316;2023-03-23T00:52:40;11.50;99.90
32522;DHT22;18963;51.504;5.316;2023-03-23T00:55:06;11.50;99.90
32522;DHT22;18963;51.504;5.316;2023-03-23T00:57:32;11.40;99.90
32522;DHT22;18963;51.504;5.316;2023-03-23T00:59:57;11.40;99.90
32522;DHT22;18963;51.504;5.316;2023-03-23T01:02:23;11.40;99.90
32522;DHT22;18963;51.504;5.316;2023-03-23T01:04:50;11.40;99.90
32522;DHT22;18963;51.504;5.316;2023-03-23T01:07:18;11.40;99.90
32522;DHT22;18963;51.504;5.316;2023-03-23T01:09:46;11.40;99.90
32522;DHT22;18963;51.504;5.316;2023-03-23T01:12:12;11.40;99.90
32522;DHT22;18963;51.504;5.316;2023-03-23T01:14:37;11.30;99.90
32522;DHT22;18963;51.504;5.316;2023-03-23T01:17:03;11.30;99.90
32522;DHT22;18963;51.504;5.316;2023-03-23T01:19:29;11.30;99.90
32522;DHT22;18963;51.504;5.316;2023-03-23T01:21:55;11.30;99.90
32522;DHT22;18963;51.504;5.316;2023-03-23T01:24:20;11.40;99.90
32522;DHT22;18963;51.504;5.316;2023-03-23T01:26:46;11.30;99.90
32522;DHT22;18963;51.504;5.316;2023-03-23T01:29:12;11.30;99.90
32522;DHT22;18963;51.504;5.316;2023-03-23T01:31:39;11.30;99.90
32522;DHT22;18963;51.504;5.316;2023-03-23T01:34:05;11.40;99.90
32522;DHT22;18963;51.504;5.316;2023-03-23T01:36:30;11.50;99.90
32522;DHT22;18963;51.504;5.316;2023-03-23T01:39:02;11.50;99.90
32522;DHT22;18963;51.504;5.316;2023-03-23T01:41:30;11.50;99.90
32522;DHT22;18963;51.504;5.316;2023-03-23T01:46:57;11.50;99.90
32522;DHT22;18963;51.504;5.316;2023-03-23T01:49:26;11.50;99.90
32522;DHT22;18963;51.504;5.316;2023-03-23T01:51:56;11.50;99.90
32522;DHT22;18963;51.504;5.316;2023-03-23T01:54:23;11.60;99.90
32522;DHT22;18963;51.504;5.316;2023-03-23T01:56:59;11.60;99.90
32522;DHT22;18963;51.504;5.316;2023-03-23T01:59:25;11.70;99.90
32522;DHT22;18963;51.504;5.316;2023-03-23T02:01:53;11.60;99.90
32522;DHT22;18963;51.504;5.316;2023-03-23T02:04:20;11.70;99.90
32522;DHT22;18963;51.504;5.316;2023-03-23T02:06:47;11.70;99.90
32522;DHT22;18963;51.504;5.316;2023-03-23T02:09:13;11.70;99.90
32522;DHT22;18963;51.504;5.316;2023-03-23T02:11:39;11.70;99.90
32522;DHT22;18963;51.504;5.316;2023-03-23T02:14:05;11.70;99.90
32522;DHT22;18963;51.504;5.316;2023-03-23T02:22:36;11.80;99.90
32522;DHT22;18963;51.504;5.316;2023-03-23T02:36:02;11.90;99.90
32522;DHT22;18963;51.504;5.316;2023-03-23T02:38:38;11.90;99.90
32522;DHT22;18963;51.504;5.316;2023-03-23T02:41:08;11.90;99.90
32522;DHT22;18963;51.504;5.316;2023-03-23T02:43:39;11.90;99.90
32522;DHT22;18963;51.504;5.316;2023-03-23T02:46:07;11.90;99.90
32522;DHT22;18963;51.504;5.316;2023-03-23T02:48:34;11.90;99.90
32522;DHT22;18963;51.504;5.316;2023-03-23T02:51:02;12.00;99.90
32522;DHT22;18963;51.504;5.316;2023-03-23T02:53:29;12.00;99.90
32522;DHT22;18963;51.504;5.316;2023-03-23T02:55:57;12.00;99.90
32522;DHT22;18963;51.504;5.316;2023-03-23T02:58:23;12.00;99.90
32522;DHT22;18963;51.504;5.316;2023-03-23T03:00:50;12.00;99.90
32522;DHT22;18963;51.504;5.316;2023-03-23T03:03:19;12.00;99.90
32522;DHT22;18963;51.504;5.316;2023-03-23T03:11:08;12.10;99.90
32522;DHT22;18963;51.504;5.316;2023-03-23T03:14:06;12.10;99.90
32522;DHT22;18963;51.504;5.316;2023-03-23T03:16:41;12.10;99.90
32522;DHT22;18963;51.504;5.316;2023-03-23T03:19:19;12.10;99.90
32522;DHT22;18963;51.504;5.316;2023-03-23T03:21:47;12.10;99.90
32522;DHT22;18963;51.504;5.316;2023-03-23T03:24:16;12.10;99.90
32522;DHT22;18963;51.504;5.316;2023-03-23T03:26:48;12.10;99.90
32522;DHT22;18963;51.504;5.316;2023-03-23T03:29:17;12.10;99.90
32522;DHT22;18963;51.504;5.316;2023-03-23T03:31:44;12.10;99.90
32522;DHT22;18963;51.504;5.316;2023-03-23T03:34:12;12.10;99.90
32522;DHT22;18963;51.504;5.316;2023-03-23T03:36:46;12.10;99.90
32522;DHT22;18963;51.504;5.316;2023-03-23T03:39:14;12.10;99.90
32522;DHT22;18963;51.504;5.316;2023-03-23T03:41:41;12.10;99.90
32522;DHT22;18963;51.504;5.316;2023-03-23T03:44:07;12.10;99.90
32522;DHT22;18963;51.504;5.316;2023-03-23T03:46:34;12.10;99.90
32522;DHT22;18963;51.504;5.316;2023-03-23T03:49:03;12.10;99.90
32522;DHT22;18963;51.504;5.316;2023-03-23T03:51:30;12.10;99.90
32522;DHT22;18963;51.504;5.316;2023-03-23T03:53:56;12.10;99.90
32522;DHT22;18963;51.504;5.316;2023-03-23T03:56:22;12.00;99.90
32522;DHT22;18963;51.504;5.316;2023-03-23T03:58:49;12.00;99.90
32522;DHT22;18963;51.504;5.316;2023-03-23T04:01:20;12.00;99.90
32522;DHT22;18963;51.504;5.316;2023-03-23T04:03:50;12.10;99.90
32522;DHT22;18963;51.504;5.316;2023-03-23T04:06:16;12.00;99.90
32522;DHT22;18963;51.504;5.316;2023-03-23T04:08:42;12.10;99.90
32522;DHT22;18963;51.504;5.316;2023-03-23T04:11:09;12.10;99.90
32522;DHT22;18963;51.504;5.316;2023-03-23T04:13:35;12.10;99.90
32522;DHT22;18963;51.504;5.316;2023-03-23T04:16:01;12.10;99.90
32522;DHT22;18963;51.504;5.316;2023-03-23T04:18:27;12.10;99.90
32522;DHT22;18963;51.504;5.316;2023-03-23T04:20:54;12.00;99.90
32522;DHT22;18963;51.504;5.316;2023-03-23T04:23:24;12.00;99.90
32522;DHT22;18963;51.504;5.316;2023-03-23T04:25:50;12.00;99.90
32522;DHT22;18963;51.504;5.316;2023-03-23T04:28:18;12.00;99.90
32522;DHT22;18963;51.504;5.316;2023-03-23T04:30:44;12.00;99.90
32522;DHT22;18963;51.504;5.316;2023-03-23T04:33:11;12.00;99.90
32522;DHT22;18963;51.504;5.316;2023-03-23T04:35:43;12.00;99.90
32522;DHT22;18963;51.504;5.316;2023-03-23T04:38:11;12.00;99.90
32522;DHT22;18963;51.504;5.316;2023-03-23T04:40:39;12.10;99.90
32522;DHT22;18963;51.504;5.316;2023-03-23T04:43:05;12.00;99.90
32522;DHT22;18963;51.504;5.316;2023-03-23T04:45:33;12.00;99.90
32522;DHT22;18963;51.504;5.316;2023-03-23T04:47:58;12.00;99.90
32522;DHT22;18963;51.504;5.316;2023-03-23T04:50:28;12.00;99.90
32522;DHT22;18963;51.504;5.316;2023-03-23T04:52:57;12.00;99.90
32522;DHT22;18963;51.504;5.316;2023-03-23T04:55:25;12.00;99.90
32522;DHT22;18963;51.504;5.316;2023-03-23T04:57:51;11.90;99.90
32522;DHT22;18963;51.504;5.316;2023-03-23T05:00:17;11.90;99.90
32522;DHT22;18963;51.504;5.316;2023-03-23T05:02:44;11.90;99.90
32522;DHT22;18963;51.504;5.316;2023-03-23T05:05:13;11.90;99.90
32522;DHT22;18963;51.504;5.316;2023-03-23T05:07:40;11.90;99.90
32522;DHT22;18963;51.504;5.316;2023-03-23T05:10:06;11.80;99.90
32522;DHT22;18963;51.504;5.316;2023-03-23T05:12:33;11.80;99.90
32522;DHT22;18963;51.504;5.316;2023-03-23T05:14:59;11.80;99.90
32522;DHT22;18963;51.504;5.316;2023-03-23T05:17:25;11.80;99.90
32522;DHT22;18963;51.504;5.316;2023-03-23T05:19:51;11.80;99.90
32522;DHT22;18963;51.504;5.316;2023-03-23T05:22:17;11.80;99.90
32522;DHT22;18963;51.504;5.316;2023-03-23T05:24:42;11.80;99.90
32522;DHT22;18963;51.504;5.316;2023-03-23T05:27:11;11.80;99.90
32522;DHT22;18963;51.504;5.316;2023-03-23T05:29:37;11.80;99.90
32522;DHT22;18963;51.504;5.316;2023-03-23T05:32:07;11.80;99.90
32522;DHT22;18963;51.504;5.316;2023-03-23T05:34:33;11.80;99.90
32522;DHT22;18963;51.504;5.316;2023-03-23T05:37:00;11.80;99.90
32522;DHT22;18963;51.504;5.316;2023-03-23T05:39:27;11.70;99.90
32522;DHT22;18963;51.504;5.316;2023-03-23T05:41:54;11.70;99.90
32522;DHT22;18963;51.504;5.316;2023-03-23T05:44:19;11.70;99.90
32522;DHT22;18963;51.504;5.316;2023-03-23T05:46:46;11.60;99.90
32522;DHT22;18963;51.504;5.316;2023-03-23T05:49:12;11.60;99.90
32522;DHT22;18963;51.504;5.316;2023-03-23T05:51:39;11.60;99.90
32522;DHT22;18963;51.504;5.316;2023-03-23T05:54:05;11.60;99.90
32522;DHT22;18963;51.504;5.316;2023-03-23T05:56:30;11.60;99.90
32522;DHT22;18963;51.504;5.316;2023-03-23T05:58:57;11.60;99.90
32522;DHT22;18963;51.504;5.316;2023-03-23T06:01:23;11.60;99.90
32522;DHT22;18963;51.504;5.316;2023-03-23T06:03:49;11.60;99.90
32522;DHT22;18963;51.504;5.316;2023-03-23T06:06:19;11.60;99.90
32522;DHT22;18963;51.504;5.316;2023-03-23T06:08:45;11.60;99.90
32522;DHT22;18963;51.504;5.316;2023-03-23T06:11:11;11.60;99.90
32522;DHT22;18963;51.504;5.316;2023-03-23T06:13:37;11.60;99.90
32522;DHT22;18963;51.504;5.316;2023-03-23T06:16:03;11.70;99.90
32522;DHT22;18963;51.504;5.316;2023-03-23T06:18:29;11.70;99.90
32522;DHT22;18963;51.504;5.316;2023-03-23T06:20:59;11.70;99.90
32522;DHT22;18963;51.504;5.316;2023-03-23T06:23:25;11.80;99.90
32522;DHT22;18963;51.504;5.316;2023-03-23T06:25:54;11.80;99.90
32522;DHT22;18963;51.504;5.316;2023-03-23T06:28:22;11.80;99.90
32522;DHT22;18963;51.504;5.316;2023-03-23T06:30:47;11.90;99.90
32522;DHT22;18963;51.504;5.316;2023-03-23T06:33:13;11.90;99.90
32522;DHT22;18963;51.504;5.316;2023-03-23T06:35:39;11.90;99.90
32522;DHT22;18963;51.504;5.316;2023-03-23T06:38:04;11.90;99.90
32522;DHT22;18963;51.504;5.316;2023-03-23T06:40:30;11.90;99.90
32522;DHT22;18963;51.504;5.316;2023-03-23T06:42:59;11.90;99.90
32522;DHT22;18963;51.504;5.316;2023-03-23T06:45:25;11.80;99.90
32522;DHT22;18963;51.504;5.316;2023-03-23T06:47:50;11.80;99.90
32522;DHT22;18963;51.504;5.316;2023-03-23T06:50:16;11.80;99.90
32522;DHT22;18963;51.504;5.316;2023-03-23T06:52:48;11.80;99.90
32522;DHT22;18963;51.504;5.316;2023-03-23T06:55:15;11.70;99.90
32522;DHT22;18963;51.504;5.316;2023-03-23T06:57:41;11.70;99.90
32522;DHT22;18963;51.504;5.316;2023-03-23T07:00:08;11.70;99.90
32522;DHT22;18963;51.504;5.316;2023-03-23T07:02:37;11.70;99.90
32522;DHT22;18963;51.504;5.316;2023-03-23T07:05:03;11.60;99.90
32522;DHT22;18963;51.504;5.316;2023-03-23T07:07:29;11.60;99.90
32522;DHT22;18963;51.504;5.316;2023-03-23T07:09:55;11.50;99.90
32522;DHT22;18963;51.504;5.316;2023-03-23T07:12:21;11.40;99.90
32522;DHT22;18963;51.504;5.316;2023-03-23T07:14:47;11.30;99.90
32522;DHT22;18963;51.504;5.316;2023-03-23T07:17:12;11.20;99.90
32522;DHT22;18963;51.504;5.316;2023-03-23T07:19:38;10.90;99.90
32522;DHT22;18963;51.504;5.316;2023-03-23T07:22:05;10.80;99.90
32522;DHT22;18963;51.504;5.316;2023-03-23T07:24:31;10.60;99.90
32522;DHT22;18963;51.504;5.316;2023-03-23T07:26:56;10.60;99.90
32522;DHT22;18963;51.504;5.316;2023-03-23T07:29:22;10.50;99.90
32522;DHT22;18963;51.504;5.316;2023-03-23T07:31:48;10.30;99.90
32522;DHT22;18963;51.504;5.316;2023-03-23T07:34:13;10.20;99.90
32522;DHT22;18963;51.504;5.316;2023-03-23T07:36:40;10.00;99.90
32522;DHT22;18963;51.504;5.316;2023-03-23T07:39:05;9.90;99.90
32522;DHT22;18963;51.504;5.316;2023-03-23T07:41:32;9.70;99.90
32522;DHT22;18963;51.504;5.316;2023-03-23T07:43:58;9.60;99.90
32522;DHT22;18963;51.504;5.316;2023-03-23T07:46:24;9.60;99.90
32522;DHT22;18963;51.504;5.316;2023-03-23T07:48:50;9.60;99.90
32522;DHT22;18963;51.504;5.316;2023-03-23T07:51:16;9.60;99.90
32522;DHT22;18963;51.504;5.316;2023-03-23T07:53:43;9.70;99.90
32522;DHT22;18963;51.504;5.316;2023-03-23T07:56:11;9.80;99.90
32522;DHT22;18963;51.504;5.316;2023-03-23T07:58:37;9.80;99.90
32522;DHT22;18963;51.504;5.316;2023-03-23T08:01:03;9.90;99.90
32522;DHT22;18963;51.504;5.316;2023-03-23T08:03:29;9.90;99.90
32522;DHT22;18963;51.504;5.316;2023-03-23T08:05:58;9.90;99.90
32522;DHT22;18963;51.504;5.316;2023-03-23T08:08:24;9.90;99.90
32522;DHT22;18963;51.504;5.316;2023-03-23T08:10:50;9.90;99.90
32522;DHT22;18963;51.504;5.316;2023-03-23T08:13:16;9.80;99.90
32522;DHT22;18963;51.504;5.316;2023-03-23T08:15:41;9.80;99.90
32522;DHT22;18963;51.504;5.316;2023-03-23T08:18:07;9.80;99.90
32522;DHT22;18963;51.504;5.316;2023-03-23T08:20:33;9.90;99.90
32522;DHT22;18963;51.504;5.316;2023-03-23T08:22:59;9.90;99.90
32522;DHT22;18963;51.504;5.316;2023-03-23T08:25:25;9.90;99.90
32522;DHT22;18963;51.504;5.316;2023-03-23T08:27:52;9.90;99.90
32522;DHT22;18963;51.504;5.316;2023-03-23T08:30:19;9.90;99.90
32522;DHT22;18963;51.504;5.316;2023-03-23T08:32:46;9.90;99.90
32522;DHT22;18963;51.504;5.316;2023-03-23T08:35:13;10.00;99.90
32522;DHT22;18963;51.504;5.316;2023-03-23T08:37:40;10.00;99.90
32522;DHT22;18963;51.504;5.316;2023-03-23T08:40:11;10.00;99.90
32522;DHT22;18963;51.504;5.316;2023-03-23T08:42:38;10.00;99.90
32522;DHT22;18963;51.504;5.316;2023-03-23T08:45:05;10.10;99.90
32522;DHT22;18963;51.504;5.316;2023-03-23T08:47:33;10.10;99.90
32522;DHT22;18963;51.504;5.316;2023-03-23T08:49:59;10.20;99.90
32522;DHT22;18963;51.504;5.316;2023-03-23T08:52:25;10.20;99.90
32522;DHT22;18963;51.504;5.316;2023-03-23T08:54:51;10.20;99.90
32522;DHT22;18963;51.504;5.316;2023-03-23T08:57:16;10.30;99.90
32522;DHT22;18963;51.504;5.316;2023-03-23T08:59:43;10.30;99.90
32522;DHT22;18963;51.504;5.316;2023-03-23T09:02:12;10.30;99.90
32522;DHT22;18963;51.504;5.316;2023-03-23T09:04:41;10.40;99.90
32522;DHT22;18963;51.504;5.316;2023-03-23T09:07:09;10.40;99.90
32522;DHT22;18963;51.504;5.316;2023-03-23T09:09:36;10.40;99.90
32522;DHT22;18963;51.504;5.316;2023-03-23T09:12:03;10.40;99.90
32522;DHT22;18963;51.504;5.316;2023-03-23T09:14:28;10.50;99.90
32522;DHT22;18963;51.504;5.316;2023-03-23T09:16:54;10.60;99.90
32522;DHT22;18963;51.504;5.316;2023-03-23T09:19:19;10.70;99.90
32522;DHT22;18963;51.504;5.316;2023-03-23T09:21:46;10.80;99.90
32522;DHT22;18963;51.504;5.316;2023-03-23T09:24:11;10.80;99.90
32522;DHT22;18963;51.504;5.316;2023-03-23T09:26:37;10.80;99.90
32522;DHT22;18963;51.504;5.316;2023-03-23T09:29:03;10.80;99.90
32522;DHT22;18963;51.504;5.316;2023-03-23T09:31:29;10.90;99.90
32522;DHT22;18963;51.504;5.316;2023-03-23T09:33:57;11.00;99.90
32522;DHT22;18963;51.504;5.316;2023-03-23T09:36:25;11.10;99.90
32522;DHT22;18963;51.504;5.316;2023-03-23T09:38:57;11.30;99.90
32522;DHT22;18963;51.504;5.316;2023-03-23T09:49:48;11.90;99.90
32522;DHT22;18963;51.504;5.316;2023-03-23T09:52:18;12.20;99.90
32522;DHT22;18963;51.504;5.316;2023-03-23T09:54:46;12.60;99.90
32522;DHT22;18963;51.504;5.316;2023-03-23T09:57:26;13.10;99.90
32522;DHT22;18963;51.504;5.316;2023-03-23T10:00:01;13.50;99.90
32522;DHT22;18963;51.504;5.316;2023-03-23T10:05:30;14.20;99.90
32522;DHT22;18963;51.504;5.316;2023-03-23T10:07:58;14.40;99.90
32522;DHT22;18963;51.504;5.316;2023-03-23T10:10:32;14.70;99.90
32522;DHT22;18963;51.504;5.316;2023-03-23T10:13:12;14.90;99.90
32522;DHT22;18963;51.504;5.316;2023-03-23T10:15:42;15.10;99.90
32522;DHT22;18963;51.504;5.316;2023-03-23T10:18:26;15.40;99.90
32522;DHT22;18963;51.504;5.316;2023-03-23T10:20:57;15.60;99.90
32522;DHT22;18963;51.504;5.316;2023-03-23T10:23:33;15.50;99.90
32522;DHT22;18963;51.504;5.316;2023-03-23T10:26:21;15.30;99.90
32522;DHT22;18963;51.504;5.316;2023-03-23T10:29:42;15.20;99.90
32522;DHT22;18963;51.504;5.316;2023-03-23T10:32:12;15.10;99.90
32522;DHT22;18963;51.504;5.316;2023-03-23T10:34:56;15.30;99.90
32522;DHT22;18963;51.504;5.316;2023-03-23T10:37:27;15.50;99.90
32522;DHT22;18963;51.504;5.316;2023-03-23T10:40:00;15.70;99.90
32522;DHT22;18963;51.504;5.316;2023-03-23T10:42:33;15.80;99.90
32522;DHT22;18963;51.504;5.316;2023-03-23T10:47:44;16.00;99.90
32522;DHT22;18963;51.504;5.316;2023-03-23T10:50:15;16.20;99.90
32522;DHT22;18963;51.504;5.316;2023-03-23T10:52:43;16.60;99.90
32522;DHT22;18963;51.504;5.316;2023-03-23T10:55:16;16.60;99.90
32522;DHT22;18963;51.504;5.316;2023-03-23T11:00:30;16.70;99.90
32522;DHT22;18963;51.504;5.316;2023-03-23T11:03:06;16.70;99.90
32522;DHT22;18963;51.504;5.316;2023-03-23T11:05:36;16.70;99.90
32522;DHT22;18963;51.504;5.316;2023-03-23T11:08:04;16.80;99.90
32522;DHT22;18963;51.504;5.316;2023-03-23T11:10:41;16.80;99.90
32522;DHT22;18963;51.504;5.316;2023-03-23T11:13:13;16.70;99.90
32522;DHT22;18963;51.504;5.316;2023-03-23T11:15:42;16.70;99.90
32522;DHT22;18963;51.504;5.316;2023-03-23T11:18:19;16.80;99.90
32522;DHT22;18963;51.504;5.316;2023-03-23T11:20:54;16.80;99.90
32522;DHT22;18963;51.504;5.316;2023-03-23T11:23:29;16.60;99.90
32522;DHT22;18963;51.504;5.316;2023-03-23T11:28:29;16.40;99.90
32522;DHT22;18963;51.504;5.316;2023-03-23T11:30:57;16.30;99.90
32522;DHT22;18963;51.504;5.316;2023-03-23T11:33:23;16.20;99.90
32522;DHT22;18963;51.504;5.316;2023-03-23T11:35:52;16.10;99.90
32522;DHT22;18963;51.504;5.316;2023-03-23T11:38:21;15.90;99.90
32522;DHT22;18963;51.504;5.316;2023-03-23T11:40:51;15.80;99.90
32522;DHT22;18963;51.504;5.316;2023-03-23T11:43:21;15.60;99.90
32522;DHT22;18963;51.504;5.316;2023-03-23T11:46:03;15.50;99.90
32522;DHT22;18963;51.504;5.316;2023-03-23T11:51:13;16.60;99.90
32522;DHT22;18963;51.504;5.316;2023-03-23T11:56:41;17.30;99.90
32522;DHT22;18963;51.504;5.316;2023-03-23T11:59:15;17.70;99.90
32522;DHT22;18963;51.504;5.316;2023-03-23T12:01:50;17.70;99.90
32522;DHT22;18963;51.504;5.316;2023-03-23T12:07:46;18.20;99.90
32522;DHT22;18963;51.504;5.316;2023-03-23T12:21:03;18.20;99.90
32522;DHT22;18963;51.504;5.316;2023-03-23T12:26:53;18.10;99.90
32522;DHT22;18963;51.504;5.316;2023-03-23T12:37:50;17.90;99.90
32522;DHT22;18963;51.504;5.316;2023-03-23T12:48:17;17.20;99.90
32522;DHT22;18963;51.504;5.316;2023-03-23T12:53:26;17.00;99.90
32522;DHT22;18963;51.504;5.316;2023-03-23T12:56:10;16.90;99.90
32522;DHT22;18963;51.504;5.316;2023-03-23T12:59:03;16.90;99.90
32522;DHT22;18963;51.504;5.316;2023-03-23T13:01:33;16.90;99.90
32522;DHT22;18963;51.504;5.316;2023-03-23T13:04:09;16.90;99.90
32522;DHT22;18963;51.504;5.316;2023-03-23T13:11:36;16.90;99.90
32522;DHT22;18963;51.504;5.316;2023-03-23T13:22:01;16.90;99.90
32522;DHT22;18963;51.504;5.316;2023-03-23T13:24:29;16.90;99.90
32522;DHT22;18963;51.504;5.316;2023-03-23T13:27:23;16.80;99.90
32522;DHT22;18963;51.504;5.316;2023-03-23T13:29:49;16.60;99.90
32522;DHT22;18963;51.504;5.316;2023-03-23T13:32:17;16.50;99.90
32522;DHT22;18963;51.504;5.316;2023-03-23T13:34:43;16.20;99.90
32522;DHT22;18963;51.504;5.316;2023-03-23T13:37:23;15.80;99.90
32522;DHT22;18963;51.504;5.316;2023-03-23T13:39:55;15.40;99.90
32522;DHT22;18963;51.504;5.316;2023-03-23T13:42:24;15.10;99.90
32522;DHT22;18963;51.504;5.316;2023-03-23T13:50:00;13.60;99.90
32522;DHT22;18963;51.504;5.316;2023-03-23T13:55:17;12.90;99.90
32522;DHT22;18963;51.504;5.316;2023-03-23T14:03:01;12.80;99.90
32522;DHT22;18963;51.504;5.316;2023-03-23T14:10:59;13.10;99.90
32522;DHT22;18963;51.504;5.316;2023-03-23T14:13:29;13.20;99.90
32522;DHT22;18963;51.504;5.316;2023-03-23T14:16:02;13.30;99.90
32522;DHT22;18963;51.504;5.316;2023-03-23T14:18:52;13.30;99.90
32522;DHT22;18963;51.504;5.316;2023-03-23T14:21:31;13.40;99.90
32522;DHT22;18963;51.504;5.316;2023-03-23T14:24:01;13.50;99.90
32522;DHT22;18963;51.504;5.316;2023-03-23T14:26:27;13.50;99.90
32522;DHT22;18963;51.504;5.316;2023-03-23T14:28:53;13.60;99.90
32522;DHT22;18963;51.504;5.316;2023-03-23T14:31:24;13.70;99.90
32522;DHT22;18963;51.504;5.316;2023-03-23T14:33:51;13.80;99.90
32522;DHT22;18963;51.504;5.316;2023-03-23T14:36:25;13.90;99.90
32522;DHT22;18963;51.504;5.316;2023-03-23T14:39:06;13.90;99.90
32522;DHT22;18963;51.504;5.316;2023-03-23T14:41:34;13.90;99.90
32522;DHT22;18963;51.504;5.316;2023-03-23T14:44:01;13.80;99.90
32522;DHT22;18963;51.504;5.316;2023-03-23T14:46:27;13.80;99.90
32522;DHT22;18963;51.504;5.316;2023-03-23T14:48:55;13.80;99.90
32522;DHT22;18963;51.504;5.316;2023-03-23T14:51:20;13.80;99.90
32522;DHT22;18963;51.504;5.316;2023-03-23T14:53:47;13.80;99.90
32522;DHT22;18963;51.504;5.316;2023-03-23T14:56:21;13.70;99.90
32522;DHT22;18963;51.504;5.316;2023-03-23T14:58:50;13.70;99.90
32522;DHT22;18963;51.504;5.316;2023-03-23T15:01:27;13.60;99.90
32522;DHT22;18963;51.504;5.316;2023-03-23T15:04:03;13.60;99.90
32522;DHT22;18963;51.504;5.316;2023-03-23T15:06:33;13.50;99.90
32522;DHT22;18963;51.504;5.316;2023-03-23T15:09:02;13.60;99.90
32522;DHT22;18963;51.504;5.316;2023-03-23T15:11:33;13.60;99.90
32522;DHT22;18963;51.504;5.316;2023-03-23T15:14:19;13.70;99.90
32522;DHT22;18963;51.504;5.316;2023-03-23T15:16:57;13.80;99.90
32522;DHT22;18963;51.504;5.316;2023-03-23T15:19:36;14.00;99.90
32522;DHT22;18963;51.504;5.316;2023-03-23T15:22:26;14.10;99.90
32522;DHT22;18963;51.504;5.316;2023-03-23T15:30:46;14.20;99.90
32522;DHT22;18963;51.504;5.316;2023-03-23T15:33:13;14.00;99.90
32522;DHT22;18963;51.504;5.316;2023-03-23T15:35:46;13.90;99.90
32522;DHT22;18963;51.504;5.316;2023-03-23T15:40:43;13.60;99.90
32522;DHT22;18963;51.504;5.316;2023-03-23T15:43:22;13.60;99.90
32522;DHT22;18963;51.504;5.316;2023-03-23T15:45:53;13.50;99.90
32522;DHT22;18963;51.504;5.316;2023-03-23T15:48:20;13.40;99.90
32522;DHT22;18963;51.504;5.316;2023-03-23T15:50:47;13.40;99.90
32522;DHT22;18963;51.504;5.316;2023-03-23T15:53:35;13.50;99.90
32522;DHT22;18963;51.504;5.316;2023-03-23T15:56:05;13.50;99.90
32522;DHT22;18963;51.504;5.316;2023-03-23T15:58:32;13.50;99.90
32522;DHT22;18963;51.504;5.316;2023-03-23T16:00:59;13.40;99.90
32522;DHT22;18963;51.504;5.316;2023-03-23T16:03:34;13.40;99.90
32522;DHT22;18963;51.504;5.316;2023-03-23T16:06:01;13.40;99.90
32522;DHT22;18963;51.504;5.316;2023-03-23T16:08:28;13.40;99.90
32522;DHT22;18963;51.504;5.316;2023-03-23T16:10:53;13.40;99.90
32522;DHT22;18963;51.504;5.316;2023-03-23T16:13:19;13.40;99.90
32522;DHT22;18963;51.504;5.316;2023-03-23T16:15:46;13.40;99.90
32522;DHT22;18963;51.504;5.316;2023-03-23T16:18:18;13.50;99.90
32522;DHT22;18963;51.504;5.316;2023-03-23T16:20:46;13.50;99.90
32522;DHT22;18963;51.504;5.316;2023-03-23T16:23:12;13.50;99.90
32522;DHT22;18963;51.504;5.316;2023-03-23T16:25:37;13.50;99.90
32522;DHT22;18963;51.504;5.316;2023-03-23T16:28:03;13.40;99.90
32522;DHT22;18963;51.504;5.316;2023-03-23T16:30:33;13.40;99.90
32522;DHT22;18963;51.504;5.316;2023-03-23T16:33:00;13.40;99.90
32522;DHT22;18963;51.504;5.316;2023-03-23T16:35:25;13.40;99.90
32522;DHT22;18963;51.504;5.316;2023-03-23T16:37:53;13.40;99.90
32522;DHT22;18963;51.504;5.316;2023-03-23T16:40:20;13.40;99.90
32522;DHT22;18963;51.504;5.316;2023-03-23T16:42:46;13.40;99.90
32522;DHT22;18963;51.504;5.316;2023-03-23T16:45:13;13.40;99.90
32522;DHT22;18963;51.504;5.316;2023-03-23T16:47:40;13.30;99.90
32522;DHT22;18963;51.504;5.316;2023-03-23T16:50:07;13.30;99.90
32522;DHT22;18963;51.504;5.316;2023-03-23T16:52:36;13.20;99.90
32522;DHT22;18963;51.504;5.316;2023-03-23T16:55:02;13.10;99.90
32522;DHT22;18963;51.504;5.316;2023-03-23T16:57:28;13.00;99.90
32522;DHT22;18963;51.504;5.316;2023-03-23T16:59:54;13.00;99.90
32522;DHT22;18963;51.504;5.316;2023-03-23T17:02:23;12.90;99.90
32522;DHT22;18963;51.504;5.316;2023-03-23T17:04:49;12.90;99.90
32522;DHT22;18963;51.504;5.316;2023-03-23T17:07:15;12.90;99.90
32522;DHT22;18963;51.504;5.316;2023-03-23T17:09:40;12.90;99.90
32522;DHT22;18963;51.504;5.316;2023-03-23T17:12:06;12.90;99.90
32522;DHT22;18963;51.504;5.316;2023-03-23T17:14:32;12.90;99.90
32522;DHT22;18963;51.504;5.316;2023-03-23T17:16:58;12.90;99.90
32522;DHT22;18963;51.504;5.316;2023-03-23T17:19:23;12.90;99.90
32522;DHT22;18963;51.504;5.316;2023-03-23T17:21:49;12.90;99.90
32522;DHT22;18963;51.504;5.316;2023-03-23T17:24:16;12.90;99.90
32522;DHT22;18963;51.504;5.316;2023-03-23T17:26:42;12.90;99.90
32522;DHT22;18963;51.504;5.316;2023-03-23T17:29:07;12.90;99.90
32522;DHT22;18963;51.504;5.316;2023-03-23T17:31:33;12.90;99.90
32522;DHT22;18963;51.504;5.316;2023-03-23T17:33:59;12.90;99.90
32522;DHT22;18963;51.504;5.316;2023-03-23T17:36:25;12.90;99.90
32522;DHT22;18963;51.504;5.316;2023-03-23T17:38:51;12.90;99.90
32522;DHT22;18963;51.504;5.316;2023-03-23T17:41:16;12.90;99.90
32522;DHT22;18963;51.504;5.316;2023-03-23T17:43:42;12.90;99.90
32522;DHT22;18963;51.504;5.316;2023-03-23T17:46:09;12.80;99.90
32522;DHT22;18963;51.504;5.316;2023-03-23T17:48:35;12.80;99.90